• Join FlightAware (Why Join?)
  • Login
  • US Flag 
11:28PM EDT


 

Airport Tracker/Info


-or-


 

Live Flight TrackerFlight Track Log ✈ DAL2278 ✈ 01-May-2013 ✈ KSLC - KSAN

Flight Track Log - Related Links

Times and Time Zones

All times are in EDT time to prevent confusion due to time zone crossing. See the DAL2278 flight status page for this flight to view local times or setup timezone preferences in your user account.

Time Position Orientation Groundspeed Altitude Reporting Facility
EDT Latitude Longitude Course Direction KTS MPH feet Rate Location/Type
07:13PM 40.8133 -112.0025 201° Southwest 162 186 5,400  Level Salt Lake Center
07:14PM 40.8253 -112.0669 284° West 200 230 7,200 2,340 Climbing Salt Lake Center
07:15PM 40.8211 -112.1592 267° West 258 297 10,600 3,180 Climbing Salt Lake Center
07:16PM 40.6268 -112.2913 189° South  Level FlightAware Approximate
07:16PM 40.7739 -112.2611 239° Southwest 298 343 13,800  Level Salt Lake Center
07:17PM 40.5000 -112.3137 192° South  Level FlightAware Approximate
07:17PM 40.6839 -112.2917 194° South 336 387 15,900  Level Salt Lake Center
07:18PM 40.3743 -112.3479 192° South  Level FlightAware Approximate
07:19PM 40.2547 -112.3976 201° Southwest  Level FlightAware Approximate
07:19PM 40.5753 -112.3106 188° South 393 452 17,200  Level Salt Lake Center
07:20PM 40.4550 -112.3361 189° South 437 503 18,600 1,440 Climbing Salt Lake Center
07:21PM 40.3292 -112.3650 190° South 460 529 20,200 1,800 Climbing Salt Lake Center
07:22PM 40.2117 -112.4478 208° Southwest 478 550 22,300 2,040 Climbing Salt Lake Center
07:23PM 40.0881 -112.5164 203° Southwest 483 556 24,400 1,800 Climbing Salt Lake Center
07:24PM 39.9281 -112.5794 197° South 499 574 26,100 1,560 Climbing Salt Lake Center
07:25PM 39.7967 -112.6344 198° South 497 572 27,600 1,500 Climbing Salt Lake Center
07:26PM 39.6511 -112.6908 197° South 511 588 29,200 1,500 Climbing Salt Lake Center
07:27PM 39.5153 -112.7464 198° South 513 590 30,700 1,320 Climbing Salt Lake Center
07:28PM 39.3825 -112.7992 197° South 504 580 32,000 600 Climbing Salt Lake Center
07:29PM 39.2511 -112.8531 198° South 497 572 32,000  Level Salt Lake Center
07:30PM 39.1189 -112.9072 198° South 498 573 32,000 240 Level Salt Lake Center
07:31PM 38.9858 -112.9606 197° South 501 577 32,500 900 Climbing Salt Lake Center
07:32PM 38.8275 -113.0211 197° South 497 572 33,900 720 Climbing Salt Lake Center
07:33PM 38.6961 -113.0728 197° South 495 570 34,000  Climbing Salt Lake Center
07:34PM 38.5650 -113.1258 198° South 495 570 34,000 420 Level Salt Lake Center
07:35PM 38.4344 -113.1775 197° South 494 568 34,900 900 Climbing Salt Lake Center
07:36PM 38.3042 -113.2294 197° South 492 566 35,900 480 Climbing Salt Lake Center
07:37PM 38.1756 -113.2806 197° South 487 560 36,000  Climbing Salt Lake Center
07:38PM 38.0231 -113.3392 197° South 481 554 36,000  Level Salt Lake Center
07:39PM 37.9011 -113.3933 199° South 472 543 36,000  Level Salt Lake Center
07:40PM 37.7919 -113.4719 210° Southwest 458 527 36,000  Level Salt Lake Center
07:41PM 37.6861 -113.5567 212° Southwest 454 522 36,000  Level Salt Lake Center
07:42PM 37.5803 -113.6419 213° Southwest 454 522 36,000  Level Salt Lake Center
07:43PM 37.4725 -113.7256 212° Southwest 457 526 36,000  Level Salt Lake Center
07:44PM 37.3431 -113.8281 212° Southwest 460 529 36,000  Level Salt Lake Center
07:45PM 37.2347 -113.9128 212° Southwest 460 529 36,000  Level Salt Lake Center
07:46PM 37.1286 -113.9967 212° Southwest 456 525 36,000  Level Salt Lake Center
07:47PM 37.0203 -114.0789 211° Southwest 457 526 36,000  Level Los Angeles Center
07:48PM 36.9114 -114.1611 211° Southwest 457 526 36,000  Level Los Angeles Center
07:49PM 36.8042 -114.2461 212° Southwest 455 524 36,000  Level Los Angeles Center
07:50PM 36.6958 -114.3297 212° Southwest 457 526 36,100  Climbing Los Angeles Center
07:51PM 36.5875 -114.4131 212° Southwest 456 525 36,000 -60 Descending Los Angeles Center
07:52PM 36.4556 -114.5133 211° Southwest 459 528 36,000  Level Los Angeles Center
07:53PM 36.3472 -114.5964 212° Southwest 458 527 36,000  Level Los Angeles Center
07:55PM 36.2361 -114.6747 210° Southwest 458 527 36,000  Level Los Angeles Center
07:56PM 36.1403 -114.7250 203° Southwest 463 533 36,000  Level Los Angeles Center
07:57PM 35.9953 -114.8019 203° Southwest 469 540 36,000  Level Los Angeles Center
07:58PM 35.8733 -114.8658 203° Southwest 471 542 36,000  Level Los Angeles Center
07:59PM 35.7528 -114.9289 203° Southwest 468 539 36,000  Level Los Angeles Center
08:00PM 35.6058 -115.0050 203° Southwest 475 547 36,000  Level Los Angeles Center
08:01PM 35.4839 -115.0700 203° Southwest 476 548 36,000  Level Los Angeles Center
08:02PM 35.3597 -115.1294 201° Southwest 477 549 36,000  Level Los Angeles Center
08:03PM 35.2347 -115.1850 200° South 478 550 36,000  Level Los Angeles Center
08:04PM 35.1064 -115.2419 200° South 482 555 36,000 -240 Level Los Angeles Center
08:05PM 34.9811 -115.2975 200° South 479 551 35,600 -780 Descending Los Angeles Center
08:06PM 34.8358 -115.3619 200° South 469 540 34,500 -1,020 Descending Los Angeles Center
08:07PM 34.7142 -115.4172 200° South 466 536 33,500 -1,020 Descending Los Angeles Center
08:08PM 34.5858 -115.4739 200° South 465 535 32,400 -1,020 Descending Los Angeles Center
08:09PM 34.4636 -115.5292 200° South 468 539 31,400 -900 Descending Los Angeles Center
08:10PM 34.3386 -115.5822 199° South 475 547 30,400 -720 Descending Los Angeles Center
08:11PM 34.1911 -115.6478 200° South 473 544 29,900 -720 Descending Los Angeles Center
08:12PM 34.0711 -115.7000 200° South 463 533 29,000 -960 Descending Los Angeles Center
08:13PM 33.9500 -115.7550 201° Southwest 462 532 28,000 -840 Descending Los Angeles Center
08:14PM 33.8036 -115.8194 200° South 466 536 27,300 -840 Descending Los Angeles Center
08:15PM 33.6828 -115.8703 199° South 461 531 26,300 -900 Descending Los Angeles Center
08:17PM 33.5642 -115.9222 200° South 454 522 25,300 -1,320 Descending Los Angeles Center
08:18PM 33.4444 -116.0219 215° Southwest 441 507 23,400 -1,200 Descending Los Angeles Center
08:19PM 33.3522 -116.1111 219° Southwest 430 495 22,900 -2,160 Descending Los Angeles Center
08:20PM 33.2403 -116.2194 219° Southwest 432 497 19,000 -3,840 Descending Los Angeles Center
08:21PM 33.1492 -116.3061 219° Southwest 425 489 15,000 -3,120 Descending Los Angeles Center
08:22PM 33.0664 -116.3856 219° Southwest 396 456 12,600 -1,440 Descending Los Angeles Center
08:23PM 32.9947 -116.4508 217° Southwest 357 411 12,000 -1,080 Descending Los Angeles Center
08:25PM 32.8364 -116.5500 208° Southwest 307 353 9,300 -1,020 Descending Los Angeles Center
08:26PM 32.7964 -116.6317 240° Southwest 294 338 8,900 -1,260 Descending Los Angeles Center
08:27PM 32.7556 -116.7156 240° Southwest 293 337 6,700 -1,440 Descending Los Angeles Center
08:28PM 32.7169 -116.7975 241° Southwest 290 334 6,000 -720 Descending Los Angeles Center
08:29PM 32.6869 -116.8825 247° West 241 277 5,200 -1,020 Descending Los Angeles Center
08:29PM 32.6833 -116.9000 256° West 238 274 4,700 -1,320 Descending Southern California TRACON
08:30PM 32.6833 -116.9833 270° West 234 269 3,500 -1,200 Descending Southern California TRACON